createdAt,value
2023-12-12T00:00:00.606Z,7.59
2023-12-12T00:00:51.526Z,7.52
2023-12-12T00:01:43.222Z,7.44
2023-12-12T00:02:33.995Z,7.44
2023-12-12T00:03:24.746Z,7.45
2023-12-12T00:04:16.247Z,7.42
2023-12-12T00:05:07.661Z,7.56
2023-12-12T00:05:58.845Z,7.58
2023-12-12T00:06:49.553Z,7.52
2023-12-12T00:07:40.945Z,7.56
2023-12-12T00:08:32.076Z,7.63
2023-12-12T00:09:22.852Z,7.59
2023-12-12T00:10:13.806Z,7.60
2023-12-12T00:11:06.903Z,7.57
2023-12-12T00:11:57.723Z,7.59
2023-12-12T00:12:50.968Z,7.57
2023-12-12T00:13:44.480Z,7.55
2023-12-12T00:14:34.910Z,7.49
2023-12-12T00:15:25.804Z,7.49
2023-12-12T00:16:16.971Z,7.47
2023-12-12T00:17:07.860Z,7.49
2023-12-12T00:17:58.694Z,7.50
2023-12-12T00:18:49.854Z,7.52
2023-12-12T00:19:43.128Z,7.65
2023-12-12T00:20:34.121Z,7.59
2023-12-12T00:21:24.994Z,7.55
2023-12-12T00:22:16.006Z,7.54
2023-12-12T00:23:07.142Z,7.60
2023-12-12T00:23:57.703Z,7.59
2023-12-12T00:24:48.525Z,7.64
2023-12-12T00:25:39.301Z,7.60
2023-12-12T00:26:30.756Z,7.66
2023-12-12T00:27:21.514Z,7.69
2023-12-12T00:28:12.454Z,7.69
2023-12-12T00:29:03.605Z,7.64
2023-12-12T00:29:54.268Z,7.72
2023-12-12T00:30:45.069Z,7.68
2023-12-12T00:31:35.913Z,7.72
2023-12-12T00:32:27.194Z,7.73
2023-12-12T00:33:18.666Z,7.70
2023-12-12T00:34:09.495Z,7.71
2023-12-12T00:35:00.451Z,7.72
2023-12-12T00:35:51.378Z,7.63
2023-12-12T00:36:42.366Z,7.58
2023-12-12T00:37:33.331Z,7.60
2023-12-12T00:38:29.545Z,7.59
2023-12-12T00:39:20.451Z,7.65
2023-12-12T00:40:12.217Z,7.62
2023-12-12T00:41:03.501Z,7.64
2023-12-12T00:41:54.047Z,7.57
2023-12-12T00:42:44.743Z,7.59
2023-12-12T00:43:35.766Z,7.60
2023-12-12T00:44:26.601Z,7.59
2023-12-12T00:45:17.594Z,7.64
2023-12-12T00:46:08.261Z,7.60
2023-12-12T00:46:59.233Z,7.56
2023-12-12T00:47:50.931Z,7.51
2023-12-12T00:48:42.174Z,7.45
2023-12-12T00:49:33.274Z,7.49
2023-12-12T00:50:24.260Z,7.52
2023-12-12T00:51:15.279Z,7.51
2023-12-12T00:52:06.400Z,7.53
2023-12-12T00:52:57.301Z,7.50
2023-12-12T00:53:48.261Z,7.51
2023-12-12T00:54:39.127Z,7.65
2023-12-12T00:55:30.048Z,7.67
2023-12-12T00:56:20.904Z,7.74
2023-12-12T00:57:11.824Z,7.74
2023-12-12T00:58:02.942Z,7.74
2023-12-12T00:58:53.819Z,7.70
2023-12-12T00:59:44.807Z,7.68
2023-12-12T01:00:35.773Z,7.71
2023-12-12T01:01:26.783Z,7.75
2023-12-12T01:02:17.372Z,7.73
2023-12-12T01:03:08.554Z,7.78
2023-12-12T01:03:59.835Z,7.80
2023-12-12T01:04:51.164Z,7.80
2023-12-12T01:05:42.155Z,7.88
2023-12-12T01:06:33.120Z,7.86
2023-12-12T01:07:24.040Z,7.85
2023-12-12T01:08:14.736Z,7.88
2023-12-12T01:09:05.529Z,7.94
2023-12-12T01:09:56.628Z,7.92
2023-12-12T01:10:47.338Z,7.91
2023-12-12T01:11:38.123Z,7.91
2023-12-12T01:12:29.959Z,7.86
2023-12-12T01:13:20.949Z,7.91
2023-12-12T01:14:13.313Z,7.91
2023-12-12T01:15:04.998Z,7.85
2023-12-12T01:15:55.938Z,7.91
2023-12-12T01:16:46.877Z,7.90
2023-12-12T01:17:37.628Z,7.85
2023-12-12T01:18:28.543Z,7.82
2023-12-12T01:19:19.542Z,7.81
2023-12-12T01:20:11.671Z,7.81
2023-12-12T01:21:03.771Z,7.80
2023-12-12T01:21:54.810Z,7.82
2023-12-12T01:22:45.997Z,7.79
2023-12-12T01:23:54.001Z,7.76
2023-12-12T01:24:45.119Z,7.71
2023-12-12T01:25:36.159Z,7.73
2023-12-12T01:26:26.907Z,7.78
2023-12-12T01:27:17.805Z,7.74
2023-12-12T01:28:08.917Z,7.71
2023-12-12T01:28:59.816Z,7.77
2023-12-12T01:29:50.640Z,7.74
2023-12-12T01:30:41.458Z,7.73
2023-12-12T01:31:32.875Z,7.81
2023-12-12T01:32:24.041Z,7.76
2023-12-12T01:33:14.797Z,7.72
2023-12-12T01:34:05.772Z,7.76
2023-12-12T01:34:56.734Z,7.74
2023-12-12T01:35:47.587Z,7.80
2023-12-12T01:36:38.290Z,7.82
2023-12-12T01:37:29.196Z,7.85
2023-12-12T01:38:20.555Z,7.78
2023-12-12T01:39:11.427Z,7.83
2023-12-12T01:40:02.211Z,7.80
2023-12-12T01:40:54.255Z,7.78
2023-12-12T01:41:48.501Z,7.74
2023-12-12T01:42:39.287Z,7.70
2023-12-12T01:43:32.421Z,7.67
2023-12-12T01:44:23.131Z,7.71
2023-12-12T01:45:15.440Z,7.70
2023-12-12T01:46:10.237Z,7.70
2023-12-12T01:47:01.447Z,7.76
2023-12-12T01:47:52.504Z,7.74
2023-12-12T01:48:43.459Z,7.76
2023-12-12T01:49:34.490Z,7.74
2023-12-12T01:50:25.125Z,7.73
2023-12-12T01:51:17.060Z,7.71
2023-12-12T01:52:09.156Z,7.78
2023-12-12T01:52:59.636Z,7.83
2023-12-12T01:53:52.369Z,7.88
2023-12-12T01:54:47.236Z,7.89
2023-12-12T01:55:38.411Z,7.86
2023-12-12T01:56:30.828Z,7.82
2023-12-12T01:57:24.188Z,7.81
2023-12-12T01:58:15.871Z,7.85
2023-12-12T01:59:08.042Z,7.86
2023-12-12T01:59:59.166Z,7.89
2023-12-12T02:00:50.617Z,7.93
2023-12-12T02:01:41.594Z,7.92
2023-12-12T02:02:32.775Z,7.89
2023-12-12T02:03:26.080Z,7.86
2023-12-12T02:04:18.245Z,7.83
2023-12-12T02:05:09.679Z,7.87
2023-12-12T02:06:03.217Z,7.91
2023-12-12T02:06:57.813Z,7.88
2023-12-12T02:07:52.339Z,7.96
2023-12-12T02:08:46.236Z,8.02
2023-12-12T02:09:39.933Z,8.01
2023-12-12T02:10:31.556Z,8.03
2023-12-12T02:11:22.870Z,8.01
2023-12-12T02:12:14.011Z,7.95
2023-12-12T02:13:06.101Z,7.99
2023-12-12T02:13:57.255Z,8.00
2023-12-12T02:14:48.170Z,7.96
2023-12-12T02:15:39.066Z,7.97
2023-12-12T02:16:30.203Z,7.98
2023-12-12T02:17:21.285Z,7.96
2023-12-12T02:18:13.023Z,7.92
2023-12-12T02:19:03.886Z,7.89
2023-12-12T02:19:54.705Z,7.86
2023-12-12T02:20:45.351Z,7.86
2023-12-12T02:21:36.338Z,7.90
2023-12-12T02:22:27.472Z,7.90
2023-12-12T02:23:18.197Z,7.92
2023-12-12T02:24:09.295Z,7.90
2023-12-12T02:25:00.528Z,7.94
2023-12-12T02:25:53.712Z,7.99
2023-12-12T02:26:44.345Z,7.99
2023-12-12T02:27:36.282Z,7.99
2023-12-12T02:28:27.419Z,7.95
2023-12-12T02:29:18.106Z,7.90
2023-12-12T02:30:09.889Z,7.98
2023-12-12T02:31:01.586Z,7.95
2023-12-12T02:31:52.410Z,7.98
2023-12-12T02:32:43.512Z,7.98
2023-12-12T02:33:34.446Z,8.06
2023-12-12T02:34:25.381Z,8.05
2023-12-12T02:35:16.167Z,7.94
2023-12-12T02:36:07.400Z,7.88
2023-12-12T02:36:57.986Z,7.92
2023-12-12T02:37:48.793Z,7.97
2023-12-12T02:38:39.766Z,7.98
2023-12-12T02:39:30.781Z,8.01
2023-12-12T02:40:21.668Z,7.94
2023-12-12T02:41:12.432Z,7.90
2023-12-12T02:42:03.392Z,7.90
2023-12-12T02:42:54.359Z,7.91
2023-12-12T02:43:45.285Z,7.88
2023-12-12T02:44:36.138Z,7.93
2023-12-12T02:45:27.058Z,7.93
2023-12-12T02:46:18.280Z,7.96
2023-12-12T02:47:09.213Z,7.93
2023-12-12T02:48:01.366Z,8.00
2023-12-12T02:48:52.537Z,8.02
2023-12-12T02:49:43.509Z,8.13
2023-12-12T02:50:34.164Z,8.09
2023-12-12T02:51:25.098Z,8.01
2023-12-12T02:52:16.644Z,8.02
2023-12-12T02:53:07.405Z,8.03
2023-12-12T02:53:58.255Z,8.03
2023-12-12T02:54:49.071Z,8.05
2023-12-12T02:55:40.105Z,8.12
2023-12-12T02:56:36.344Z,8.07
2023-12-12T02:57:26.974Z,8.03
2023-12-12T02:58:17.956Z,8.02
2023-12-12T02:59:08.806Z,7.95
2023-12-12T02:59:59.624Z,7.93
2023-12-12T03:00:50.705Z,7.96
2023-12-12T03:01:41.562Z,8.01
2023-12-12T03:02:34.118Z,8.00
2023-12-12T03:03:24.893Z,7.99
2023-12-12T03:04:16.205Z,7.95
2023-12-12T03:05:09.768Z,7.98
2023-12-12T03:06:00.734Z,7.94
2023-12-12T03:06:51.763Z,7.92
2023-12-12T03:07:42.657Z,7.89
2023-12-12T03:08:33.419Z,7.90
2023-12-12T03:09:24.221Z,7.88
2023-12-12T03:10:15.361Z,7.92
2023-12-12T03:11:06.470Z,7.92
2023-12-12T03:11:57.986Z,7.92
2023-12-12T03:12:48.940Z,7.87
2023-12-12T03:13:40.089Z,7.89
2023-12-12T03:14:31.033Z,7.91
2023-12-12T03:15:21.928Z,7.97
2023-12-12T03:16:13.030Z,7.93
2023-12-12T03:17:03.996Z,8.00
2023-12-12T03:17:54.824Z,8.02
2023-12-12T03:18:45.718Z,8.16
2023-12-12T03:19:36.764Z,8.07
2023-12-12T03:20:27.962Z,8.05
2023-12-12T03:21:18.719Z,7.96
2023-12-12T03:22:09.640Z,7.97
2023-12-12T03:23:00.683Z,7.97
2023-12-12T03:23:51.482Z,7.94
2023-12-12T03:24:42.290Z,7.91
2023-12-12T03:25:33.260Z,7.90
2023-12-12T03:26:24.031Z,7.92
2023-12-12T03:27:15.047Z,7.91
2023-12-12T03:28:05.816Z,7.96
2023-12-12T03:28:56.748Z,8.01
2023-12-12T03:29:47.810Z,8.06
2023-12-12T03:30:38.730Z,8.08
2023-12-12T03:31:29.609Z,8.09
2023-12-12T03:32:20.527Z,8.00
2023-12-12T03:33:11.575Z,8.01
2023-12-12T03:34:02.606Z,7.96
2023-12-12T03:34:53.459Z,8.02
2023-12-12T03:35:44.051Z,8.01
2023-12-12T03:36:35.944Z,7.98
2023-12-12T03:37:27.150Z,7.99
2023-12-12T03:38:17.778Z,8.09
2023-12-12T03:39:08.784Z,8.07
2023-12-12T03:39:59.696Z,8.09
2023-12-12T03:40:50.385Z,8.01
2023-12-12T03:41:41.271Z,7.99
2023-12-12T03:42:32.231Z,7.97
2023-12-12T03:43:25.629Z,7.97
2023-12-12T03:44:16.736Z,7.92
2023-12-12T03:45:08.290Z,7.98
2023-12-12T03:45:59.239Z,8.04
2023-12-12T03:46:49.938Z,7.97
2023-12-12T03:47:40.706Z,7.93
2023-12-12T03:48:31.827Z,7.91
2023-12-12T03:49:22.782Z,7.90
2023-12-12T03:50:14.263Z,7.89
2023-12-12T03:51:05.520Z,7.90
2023-12-12T03:51:56.375Z,8.00
2023-12-12T03:52:47.342Z,7.99
2023-12-12T03:53:38.241Z,7.98
2023-12-12T03:54:34.323Z,8.00
2023-12-12T03:55:25.430Z,8.03
2023-12-12T03:56:16.222Z,8.02
2023-12-12T03:57:07.148Z,8.03
2023-12-12T03:57:57.986Z,8.16
2023-12-12T03:58:48.898Z,8.12
2023-12-12T03:59:40.799Z,8.09
2023-12-12T04:00:31.680Z,8.05
2023-12-12T04:01:23.385Z,8.02
2023-12-12T04:02:14.407Z,8.02
2023-12-12T04:03:05.459Z,8.03
2023-12-12T04:03:56.661Z,8.03
2023-12-12T04:04:47.293Z,7.98
2023-12-12T04:05:38.438Z,7.96
2023-12-12T04:06:29.395Z,7.98
2023-12-12T04:07:20.267Z,7.95
2023-12-12T04:08:10.847Z,7.96
2023-12-12T04:09:01.670Z,7.98
2023-12-12T04:09:52.647Z,7.96
2023-12-12T04:10:43.443Z,7.96
2023-12-12T04:11:34.233Z,7.95
2023-12-12T04:12:25.043Z,7.95
2023-12-12T04:13:15.895Z,7.91
2023-12-12T04:14:06.859Z,7.94
2023-12-12T04:14:57.710Z,7.89
2023-12-12T04:15:48.538Z,7.89
2023-12-12T04:16:40.322Z,7.85
2023-12-12T04:17:31.969Z,7.86
2023-12-12T04:18:22.968Z,7.83
2023-12-12T04:19:13.929Z,7.77
2023-12-12T04:20:06.416Z,7.78
2023-12-12T04:20:57.181Z,7.70
2023-12-12T04:21:48.218Z,7.68
2023-12-12T04:22:39.239Z,7.65
2023-12-12T04:23:30.179Z,7.65
2023-12-12T04:24:20.839Z,7.60
2023-12-12T04:25:13.002Z,7.58
2023-12-12T04:26:04.271Z,7.55
2023-12-12T04:26:57.452Z,7.58
2023-12-12T04:27:50.103Z,7.57
2023-12-12T04:28:40.703Z,7.54
2023-12-12T04:29:31.703Z,7.58
2023-12-12T04:30:22.608Z,7.61
2023-12-12T04:31:18.113Z,7.59
2023-12-12T04:32:09.156Z,7.57
2023-12-12T04:32:59.932Z,7.55
2023-12-12T04:33:51.011Z,7.58
2023-12-12T04:34:41.914Z,7.53
2023-12-12T04:35:32.702Z,7.49
2023-12-12T04:36:23.645Z,7.46
2023-12-12T04:37:14.728Z,7.41
2023-12-12T04:38:05.709Z,7.38
2023-12-12T04:38:56.480Z,7.38
2023-12-12T04:39:47.465Z,7.40
2023-12-12T04:40:40.782Z,7.39
2023-12-12T04:41:31.840Z,7.37
2023-12-12T04:42:24.391Z,7.39
2023-12-12T04:43:15.309Z,7.48
2023-12-12T04:44:06.380Z,7.48
2023-12-12T04:44:57.420Z,7.46
2023-12-12T04:45:48.926Z,7.42
2023-12-12T04:46:42.455Z,7.43
2023-12-12T04:47:34.069Z,7.47
2023-12-12T04:48:25.266Z,7.55
2023-12-12T04:49:16.364Z,7.52
2023-12-12T04:50:07.967Z,7.51
2023-12-12T04:50:59.308Z,7.46
2023-12-12T04:51:52.556Z,7.45
2023-12-12T04:52:43.466Z,7.44
2023-12-12T04:53:34.553Z,7.44
2023-12-12T04:54:25.388Z,7.40
2023-12-12T04:55:16.390Z,7.35
2023-12-12T04:56:07.564Z,7.35
2023-12-12T04:56:58.845Z,7.31
2023-12-12T04:57:49.921Z,7.33
2023-12-12T04:58:40.681Z,7.28
2023-12-12T04:59:31.606Z,7.23
2023-12-12T05:00:22.759Z,7.26
2023-12-12T05:01:17.551Z,7.31
2023-12-12T05:02:08.850Z,7.30
2023-12-12T05:02:59.776Z,7.33
2023-12-12T05:03:50.675Z,7.33
2023-12-12T05:04:41.596Z,7.25
2023-12-12T05:05:32.637Z,7.33
2023-12-12T05:06:23.613Z,7.25
2023-12-12T05:07:16.824Z,7.21
2023-12-12T05:08:07.938Z,7.27
2023-12-12T05:08:58.969Z,7.14
2023-12-12T05:09:49.886Z,7.10
2023-12-12T05:10:40.869Z,7.17
2023-12-12T05:11:32.004Z,7.15
2023-12-12T05:12:23.113Z,7.07
2023-12-12T05:13:14.046Z,7.07
2023-12-12T05:14:07.191Z,6.99
2023-12-12T05:14:58.209Z,6.92
2023-12-12T05:15:49.238Z,6.98
2023-12-12T05:16:40.216Z,6.95
2023-12-12T05:17:31.223Z,6.96
2023-12-12T05:18:23.043Z,6.93
2023-12-12T05:19:13.989Z,6.96
2023-12-12T05:20:06.055Z,6.93
2023-12-12T05:20:56.948Z,6.92
2023-12-12T05:21:47.869Z,6.93
2023-12-12T05:22:38.925Z,6.97
2023-12-12T05:23:29.698Z,6.94
2023-12-12T05:24:20.535Z,6.96
2023-12-12T05:25:12.613Z,6.92
2023-12-12T05:26:03.493Z,6.95
2023-12-12T05:26:54.440Z,6.93
2023-12-12T05:27:45.538Z,6.88
2023-12-12T05:28:36.465Z,6.87
2023-12-12T05:29:27.384Z,6.89
2023-12-12T05:30:18.848Z,6.90
2023-12-12T05:31:10.014Z,6.89
2023-12-12T05:32:00.839Z,6.90
2023-12-12T05:32:51.665Z,6.99
2023-12-12T05:33:42.799Z,6.94
2023-12-12T05:34:33.699Z,6.86
2023-12-12T05:35:24.597Z,6.96
2023-12-12T05:36:15.400Z,6.93
2023-12-12T05:37:09.344Z,6.94
2023-12-12T05:38:00.408Z,6.95
2023-12-12T05:38:52.498Z,6.96
2023-12-12T05:39:43.402Z,6.96
2023-12-12T05:40:34.771Z,6.93
2023-12-12T05:41:25.997Z,6.90
2023-12-12T05:42:16.951Z,6.89
2023-12-12T05:43:07.956Z,7.01
2023-12-12T05:44:01.640Z,7.08
2023-12-12T05:44:52.300Z,7.06
2023-12-12T05:45:43.137Z,7.07
2023-12-12T05:46:34.703Z,7.09
2023-12-12T05:47:26.213Z,7.14
2023-12-12T05:48:17.607Z,7.02
2023-12-12T05:49:10.722Z,7.08
2023-12-12T05:50:01.783Z,7.05
2023-12-12T05:50:52.601Z,7.01
2023-12-12T05:51:44.466Z,6.99
2023-12-12T05:52:34.951Z,6.95
2023-12-12T05:53:27.682Z,6.89
2023-12-12T05:54:19.075Z,6.88
2023-12-12T05:55:10.378Z,6.88
2023-12-12T05:56:01.321Z,6.99
2023-12-12T05:56:52.269Z,7.03
2023-12-12T05:57:43.175Z,6.99
2023-12-12T05:58:34.003Z,6.97
2023-12-12T05:59:24.913Z,6.94
2023-12-12T06:00:16.349Z,6.93
2023-12-12T06:01:07.391Z,6.95
2023-12-12T06:01:58.491Z,6.90
2023-12-12T06:02:49.565Z,6.85
2023-12-12T06:03:42.368Z,6.88
2023-12-12T06:04:36.923Z,6.86
2023-12-12T06:05:28.424Z,6.85
2023-12-12T06:06:21.943Z,6.80
2023-12-12T06:07:14.410Z,6.78
2023-12-12T06:08:05.394Z,6.77
2023-12-12T06:08:56.307Z,6.80
2023-12-12T06:09:47.257Z,6.80
2023-12-12T06:10:38.928Z,6.81
2023-12-12T06:11:30.173Z,6.80
2023-12-12T06:12:21.107Z,6.91
2023-12-12T06:13:11.927Z,6.85
2023-12-12T06:14:04.420Z,6.80
2023-12-12T06:14:55.864Z,6.80
2023-12-12T06:15:46.661Z,6.78
2023-12-12T06:16:39.074Z,6.81
2023-12-12T06:17:30.509Z,6.80
2023-12-12T06:18:21.797Z,6.81
2023-12-12T06:19:12.632Z,6.82
2023-12-12T06:20:55.123Z,6.77
2023-12-12T06:21:47.694Z,6.71
2023-12-12T06:22:38.551Z,6.77
2023-12-12T06:23:30.349Z,6.77
2023-12-12T06:24:22.117Z,6.79
2023-12-12T06:25:12.838Z,6.78
2023-12-12T06:26:05.003Z,6.75
2023-12-12T06:26:56.317Z,6.72
2023-12-12T06:27:46.891Z,6.79
2023-12-12T06:28:37.842Z,6.79
2023-12-12T06:29:28.743Z,6.74
2023-12-12T06:30:19.700Z,6.71
2023-12-12T06:31:10.545Z,6.78
2023-12-12T06:32:01.804Z,6.78
2023-12-12T06:32:52.720Z,6.82
2023-12-12T06:33:43.448Z,6.79
2023-12-12T06:34:34.307Z,6.77
2023-12-12T06:35:25.360Z,6.77
2023-12-12T06:36:16.500Z,6.81
2023-12-12T06:37:07.284Z,6.88
2023-12-12T06:37:58.168Z,6.90
2023-12-12T06:38:48.984Z,6.82
2023-12-12T06:39:39.712Z,6.78
2023-12-12T06:40:31.405Z,6.81
2023-12-12T06:41:22.464Z,6.76
2023-12-12T06:42:13.385Z,6.79
2023-12-12T06:43:04.291Z,6.81
2023-12-12T06:43:55.182Z,6.80
2023-12-12T06:44:46.032Z,6.74
2023-12-12T06:45:38.258Z,6.72
2023-12-12T06:46:28.895Z,6.71
2023-12-12T06:47:19.756Z,6.80
2023-12-12T06:48:12.962Z,6.76
2023-12-12T06:49:08.104Z,6.76
2023-12-12T06:49:59.203Z,6.73
2023-12-12T06:50:50.285Z,6.81
2023-12-12T06:51:41.203Z,6.79
2023-12-12T06:52:35.710Z,6.88
2023-12-12T06:53:26.864Z,6.90
2023-12-12T06:54:17.844Z,6.91
2023-12-12T06:55:09.094Z,6.84
2023-12-12T06:56:00.044Z,6.81
2023-12-12T06:56:50.923Z,6.85
2023-12-12T06:57:41.682Z,6.92
2023-12-12T06:58:32.674Z,6.85
2023-12-12T06:59:23.978Z,6.82
2023-12-12T07:00:15.610Z,6.82
2023-12-12T07:01:06.835Z,6.79
2023-12-12T07:02:00.372Z,6.87
2023-12-12T07:02:51.523Z,6.87
2023-12-12T07:03:42.370Z,6.83
2023-12-12T07:04:33.800Z,6.84
2023-12-12T07:05:24.940Z,6.83
2023-12-12T07:06:20.090Z,6.82
2023-12-12T07:07:13.048Z,6.87
2023-12-12T07:08:05.951Z,6.85
2023-12-12T07:08:56.696Z,6.83
2023-12-12T07:09:58.858Z,6.91
2023-12-12T07:10:51.891Z,6.92
2023-12-12T07:11:45.179Z,6.94
2023-12-12T07:12:35.723Z,6.90
2023-12-12T07:13:26.612Z,6.90
2023-12-12T07:14:17.593Z,6.93
2023-12-12T07:15:08.652Z,6.93
2023-12-12T07:15:59.519Z,6.99
2023-12-12T07:16:50.461Z,7.02
2023-12-12T07:17:41.808Z,7.06
2023-12-12T07:18:34.016Z,7.02
2023-12-12T07:19:25.426Z,7.03
2023-12-12T07:20:16.222Z,7.02
2023-12-12T07:21:07.631Z,7.05
2023-12-12T07:21:58.746Z,7.08
2023-12-12T07:22:50.069Z,7.07
2023-12-12T07:23:40.798Z,7.08
2023-12-12T07:24:31.519Z,7.15
2023-12-12T07:25:22.621Z,7.11
2023-12-12T07:26:17.112Z,7.17
2023-12-12T07:27:08.199Z,7.15
2023-12-12T07:27:59.618Z,7.15
2023-12-12T07:28:51.005Z,7.11
2023-12-12T07:29:41.715Z,7.17
2023-12-12T07:30:33.431Z,7.14
2023-12-12T07:31:24.570Z,7.20
2023-12-12T07:32:15.386Z,7.18
2023-12-12T07:33:06.403Z,7.20
2023-12-12T07:33:57.427Z,7.21
2023-12-12T07:34:48.327Z,7.20
2023-12-12T07:35:39.141Z,7.20
2023-12-12T07:36:29.981Z,7.20
2023-12-12T07:37:21.012Z,7.17
2023-12-12T07:38:11.958Z,7.23
2023-12-12T07:39:03.571Z,7.26
2023-12-12T07:39:54.230Z,7.25
2023-12-12T07:40:45.545Z,7.25
2023-12-12T07:41:36.564Z,7.33
2023-12-12T07:42:30.793Z,7.29
2023-12-12T07:43:23.477Z,7.28
2023-12-12T07:44:14.449Z,7.29
2023-12-12T07:45:05.902Z,7.33
2023-12-12T07:45:56.691Z,7.26
2023-12-12T07:46:47.558Z,7.38
2023-12-12T07:47:42.949Z,7.40
2023-12-12T07:48:35.004Z,7.35
2023-12-12T07:49:28.294Z,7.40
2023-12-12T07:50:19.690Z,7.37
2023-12-12T07:51:11.877Z,7.33
2023-12-12T07:52:02.837Z,7.37
2023-12-12T07:52:53.815Z,7.36
2023-12-12T07:53:44.504Z,7.32
2023-12-12T07:54:35.418Z,7.33
2023-12-12T07:55:26.464Z,7.29
2023-12-12T07:56:17.212Z,7.30
2023-12-12T07:57:08.145Z,7.26
2023-12-12T07:57:59.126Z,7.33
2023-12-12T07:58:50.076Z,7.40
2023-12-12T07:59:43.309Z,7.39
2023-12-12T08:00:34.213Z,7.42
2023-12-12T08:01:25.352Z,7.43
2023-12-12T08:02:16.059Z,7.44
2023-12-12T08:03:06.808Z,7.45
2023-12-12T08:03:57.832Z,7.44
2023-12-12T08:04:48.931Z,7.44
2023-12-12T08:05:40.042Z,7.53
2023-12-12T08:06:31.158Z,7.59
2023-12-12T08:07:24.002Z,7.60
2023-12-12T08:08:15.614Z,7.59
2023-12-12T08:09:06.231Z,7.60
2023-12-12T08:09:57.198Z,7.58
2023-12-12T08:10:48.482Z,7.57
2023-12-12T08:11:39.706Z,7.59
2023-12-12T08:12:30.490Z,7.69
2023-12-12T08:13:21.504Z,7.67
2023-12-12T08:14:12.926Z,7.69
2023-12-12T08:15:04.909Z,7.71
2023-12-12T08:15:55.796Z,7.69
2023-12-12T08:16:46.852Z,7.66
2023-12-12T08:17:37.860Z,7.68
2023-12-12T08:18:28.740Z,7.72
2023-12-12T08:19:19.922Z,7.68
2023-12-12T08:20:11.695Z,7.70
2023-12-12T08:21:02.633Z,7.65
2023-12-12T08:21:53.491Z,7.60
2023-12-12T08:22:44.623Z,7.58
2023-12-12T08:23:38.268Z,7.61
2023-12-12T08:24:29.053Z,7.63
2023-12-12T08:25:22.815Z,7.68
2023-12-12T08:26:13.938Z,7.74
2023-12-12T08:27:05.151Z,7.77
2023-12-12T08:27:55.927Z,7.78
2023-12-12T08:28:46.754Z,7.78
2023-12-12T08:29:37.617Z,7.77
2023-12-12T08:30:28.502Z,7.78
2023-12-12T08:31:19.534Z,7.86
2023-12-12T08:32:10.413Z,7.86
2023-12-12T08:33:01.339Z,7.88
2023-12-12T08:33:52.157Z,7.88
2023-12-12T08:34:42.888Z,7.96
2023-12-12T08:35:33.691Z,7.93
2023-12-12T08:36:24.553Z,7.92
2023-12-12T08:37:17.726Z,7.92
2023-12-12T08:38:08.549Z,7.89
2023-12-12T08:39:02.388Z,7.94
2023-12-12T08:39:53.336Z,7.98
2023-12-12T08:40:44.532Z,7.96
2023-12-12T08:41:38.725Z,7.98
2023-12-12T08:42:29.796Z,8.02
2023-12-12T08:43:20.554Z,8.06
2023-12-12T08:44:11.518Z,8.11
2023-12-12T08:45:03.486Z,8.13
2023-12-12T08:45:55.914Z,8.14
2023-12-12T08:46:47.076Z,8.18
2023-12-12T08:47:38.636Z,8.13
2023-12-12T08:48:30.298Z,8.07
2023-12-12T08:49:21.266Z,8.07
2023-12-12T08:50:12.497Z,8.11
2023-12-12T08:51:03.576Z,8.07
2023-12-12T08:51:54.386Z,8.01
2023-12-12T08:52:46.507Z,8.07
2023-12-12T08:53:38.000Z,8.05
2023-12-12T08:54:28.524Z,8.02
2023-12-12T08:55:19.651Z,8.06
2023-12-12T08:56:15.813Z,8.11
2023-12-12T08:57:07.205Z,8.07
2023-12-12T08:57:58.219Z,8.06
2023-12-12T08:58:50.464Z,8.07
2023-12-12T08:59:41.590Z,8.12
2023-12-12T09:00:32.708Z,8.15
2023-12-12T09:01:23.858Z,8.14
2023-12-12T09:02:14.896Z,8.15
2023-12-12T09:03:05.767Z,8.18
2023-12-12T09:03:57.636Z,8.26
2023-12-12T09:04:48.782Z,8.30
2023-12-12T09:05:40.053Z,8.26
2023-12-12T09:06:30.648Z,8.24
2023-12-12T09:07:21.634Z,8.24
2023-12-12T09:08:12.421Z,8.25
2023-12-12T09:09:03.714Z,8.26
2023-12-12T09:09:54.540Z,8.30
2023-12-12T09:10:45.562Z,8.30
2023-12-12T09:11:37.110Z,8.32
2023-12-12T09:12:28.066Z,8.31
2023-12-12T09:13:18.972Z,8.35
2023-12-12T09:14:09.674Z,8.35
2023-12-12T09:15:00.832Z,8.33
2023-12-12T09:15:51.528Z,8.34
2023-12-12T09:16:42.525Z,8.39
2023-12-12T09:17:33.426Z,8.41
2023-12-12T09:18:24.748Z,8.43
2023-12-12T09:19:17.953Z,8.39
2023-12-12T09:20:09.674Z,8.33
2023-12-12T09:21:04.381Z,8.32
2023-12-12T09:21:55.742Z,8.33
2023-12-12T09:22:46.709Z,8.33
2023-12-12T09:23:40.909Z,8.32
2023-12-12T09:24:31.597Z,8.33
2023-12-12T09:25:22.467Z,8.30
2023-12-12T09:26:14.792Z,8.29
2023-12-12T09:27:06.131Z,8.30
2023-12-12T09:27:56.910Z,8.31
2023-12-12T09:28:48.505Z,8.24
2023-12-12T09:29:39.682Z,8.28
2023-12-12T09:30:30.717Z,8.21
2023-12-12T09:31:27.418Z,8.23
2023-12-12T09:32:18.616Z,8.26
2023-12-12T09:33:09.604Z,8.28
2023-12-12T09:34:00.606Z,8.26
2023-12-12T09:34:51.412Z,8.22
2023-12-12T09:35:42.368Z,8.23
2023-12-12T09:36:33.408Z,8.29
2023-12-12T09:37:24.887Z,8.34
2023-12-12T09:38:15.977Z,8.38
2023-12-12T09:39:08.478Z,8.50
2023-12-12T09:40:02.150Z,8.50
2023-12-12T09:40:53.386Z,8.48
2023-12-12T09:41:51.013Z,8.44
2023-12-12T09:42:41.733Z,8.41
2023-12-12T09:43:36.783Z,8.40
2023-12-12T09:44:31.580Z,8.36
2023-12-12T09:45:24.131Z,8.38
2023-12-12T09:46:16.114Z,8.33
2023-12-12T09:47:08.467Z,8.33
2023-12-12T09:48:00.019Z,8.33
2023-12-12T09:48:51.125Z,8.25
2023-12-12T09:49:43.132Z,8.24
2023-12-12T09:50:36.164Z,8.18
2023-12-12T09:51:27.111Z,8.21
2023-12-12T09:52:18.797Z,8.23
2023-12-12T09:53:10.809Z,8.29
2023-12-12T09:54:07.560Z,8.34
2023-12-12T09:55:00.096Z,8.30
2023-12-12T09:55:52.864Z,8.29
2023-12-12T09:56:44.932Z,8.31
2023-12-12T09:57:35.939Z,8.31
2023-12-12T09:58:26.944Z,8.29
2023-12-12T09:59:17.870Z,8.28
2023-12-12T10:00:10.041Z,8.31
2023-12-12T10:01:03.666Z,8.31
2023-12-12T10:01:56.801Z,8.33
2023-12-12T10:02:48.667Z,8.38
2023-12-12T10:03:39.978Z,8.42
2023-12-12T10:04:30.851Z,8.46
2023-12-12T10:05:21.878Z,8.52
2023-12-12T10:06:14.393Z,8.60
2023-12-12T10:07:09.129Z,8.59
2023-12-12T10:08:08.182Z,8.64
2023-12-12T10:09:02.354Z,8.61
2023-12-12T10:09:54.620Z,8.67
2023-12-12T10:10:45.374Z,8.73
2023-12-12T10:11:36.328Z,8.75
2023-12-12T10:12:30.002Z,8.75
2023-12-12T10:13:22.469Z,8.74
2023-12-12T10:14:13.359Z,8.75
2023-12-12T10:15:04.716Z,8.77
2023-12-12T10:15:55.800Z,8.84
2023-12-12T10:17:02.077Z,8.93
2023-12-12T10:17:58.170Z,8.97
2023-12-12T10:18:51.885Z,8.96
2023-12-12T10:19:43.107Z,9.01
2023-12-12T10:20:36.448Z,9.04
2023-12-12T10:21:28.058Z,9.03
2023-12-12T10:22:19.043Z,9.06
2023-12-12T10:23:10.156Z,9.11
2023-12-12T10:24:01.115Z,9.16
2023-12-12T10:24:54.146Z,9.17
2023-12-12T10:25:50.996Z,9.29
2023-12-12T10:26:42.010Z,9.33
2023-12-12T10:27:32.816Z,9.39
2023-12-12T10:28:25.085Z,9.42
2023-12-12T10:29:21.010Z,9.40
2023-12-12T10:30:13.757Z,9.45
2023-12-12T10:31:06.597Z,9.43
2023-12-12T10:32:00.155Z,9.43
2023-12-12T10:32:54.835Z,9.44
2023-12-12T10:33:46.026Z,9.34
2023-12-12T10:34:36.876Z,9.38
2023-12-12T10:35:32.027Z,9.31
2023-12-12T10:36:23.078Z,9.24
2023-12-12T10:37:19.686Z,9.25
2023-12-12T10:38:10.757Z,9.20
2023-12-12T10:39:15.290Z,9.11
2023-12-12T10:40:20.649Z,9.22
2023-12-12T10:41:15.699Z,9.15
2023-12-12T10:42:06.767Z,9.08
2023-12-12T10:42:59.326Z,9.00
2023-12-12T10:43:50.716Z,9.05
2023-12-12T10:44:46.334Z,9.00
2023-12-12T10:45:41.686Z,9.08
2023-12-12T10:46:37.617Z,9.05
2023-12-12T10:47:28.787Z,9.02
2023-12-12T10:48:22.912Z,8.99
2023-12-12T10:49:14.932Z,8.99
2023-12-12T10:50:10.607Z,9.01
2023-12-12T10:51:03.905Z,8.96
2023-12-12T10:51:55.037Z,8.99
2023-12-12T10:52:47.795Z,8.98
2023-12-12T10:53:39.116Z,8.94
2023-12-12T10:54:34.780Z,8.95
2023-12-12T10:55:26.497Z,9.00
2023-12-12T10:56:18.495Z,9.00
2023-12-12T10:57:10.873Z,8.99
2023-12-12T10:58:01.381Z,9.06
2023-12-12T10:58:52.743Z,9.09
2023-12-12T10:59:59.117Z,9.12
2023-12-12T11:00:54.306Z,9.11
2023-12-12T11:01:48.898Z,9.16
2023-12-12T11:02:44.441Z,9.23
2023-12-12T11:03:36.913Z,9.26
2023-12-12T11:04:29.218Z,9.28
2023-12-12T11:05:20.832Z,9.26
2023-12-12T11:06:12.734Z,9.33
2023-12-12T11:07:04.343Z,9.23
2023-12-12T11:07:57.020Z,9.25
2023-12-12T11:08:48.211Z,9.17
2023-12-12T11:09:39.516Z,9.16
2023-12-12T11:10:30.736Z,9.21
2023-12-12T11:11:24.654Z,9.20
2023-12-12T11:12:16.369Z,9.21
2023-12-12T11:13:08.718Z,9.33
2023-12-12T11:14:01.479Z,9.35
2023-12-12T11:14:53.505Z,9.40
2023-12-12T11:15:46.136Z,9.46
2023-12-12T11:16:38.135Z,9.47
2023-12-12T11:17:29.262Z,9.56
2023-12-12T11:18:22.152Z,9.65
2023-12-12T11:19:17.881Z,9.62
2023-12-12T11:20:16.987Z,9.69
2023-12-12T11:21:08.001Z,9.69
2023-12-12T11:21:59.238Z,9.72
2023-12-12T11:22:52.829Z,9.75
2023-12-12T11:23:43.961Z,9.82
2023-12-12T11:25:00.580Z,9.76
2023-12-12T11:25:51.708Z,9.84
2023-12-12T11:26:43.920Z,9.83
2023-12-12T11:27:37.380Z,9.86
2023-12-12T11:28:29.189Z,9.95